createdAt,value
2018-05-14T00:01:04.789Z,104.23
2018-05-14T00:03:34.429Z,103.43
2018-05-14T00:06:03.304Z,120.93
2018-05-14T00:08:32.890Z,115.20
2018-05-14T00:11:02.512Z,106.27
2018-05-14T00:13:31.370Z,110.43
2018-05-14T00:16:01.279Z,115.67
2018-05-14T00:18:30.129Z,109.70
2018-05-14T00:20:58.990Z,115.40
2018-05-14T00:23:28.597Z,111.23
2018-05-14T00:25:57.476Z,113.80
2018-05-14T00:28:26.308Z,124.43
2018-05-14T00:30:55.191Z,109.63
2018-05-14T00:33:24.051Z,124.67
2018-05-14T00:35:53.693Z,121.53
2018-05-14T00:38:22.545Z,133.10
2018-05-14T00:40:52.159Z,136.53
2018-05-14T00:43:21.028Z,135.97
2018-05-14T00:45:50.653Z,137.83
2018-05-14T00:48:19.523Z,126.43
2018-05-14T00:50:48.356Z,129.40
2018-05-14T00:53:17.654Z,134.27
2018-05-14T00:55:47.270Z,128.67
2018-05-14T00:58:16.893Z,121.63
2018-05-14T01:00:45.756Z,124.77
2018-05-14T01:03:14.701Z,126.37
2018-05-14T01:05:43.544Z,121.70
2018-05-14T01:08:13.171Z,126.07
2018-05-14T01:10:42.029Z,136.93
2018-05-14T01:13:10.910Z,147.47
2018-05-14T01:15:39.770Z,122.20
2018-05-14T01:18:08.617Z,134.23
2018-05-14T01:20:38.228Z,122.50
2018-05-14T01:23:07.869Z,121.63
2018-05-14T01:25:36.723Z,114.23
2018-05-14T01:28:06.371Z,115.17
2018-05-14T01:30:35.223Z,120.10
2018-05-14T01:33:04.838Z,108.47
2018-05-14T01:35:33.741Z,111.17
2018-05-14T01:38:02.937Z,104.10
2018-05-14T01:40:31.821Z,106.73
2018-05-14T01:43:01.637Z,99.10
2018-05-14T01:45:31.212Z,98.17
2018-05-14T01:48:00.824Z,93.50
2018-05-14T01:50:30.460Z,97.43
2018-05-14T01:52:59.321Z,102.53
2018-05-14T01:55:28.956Z,90.13
2018-05-14T01:57:57.810Z,99.47
2018-05-14T02:00:27.435Z,101.30
2018-05-14T02:02:56.994Z,96.73
2018-05-14T02:05:25.849Z,100.47
2018-05-14T02:07:54.822Z,96.07
2018-05-14T02:10:24.460Z,98.40
2018-05-14T02:12:53.325Z,95.83
2018-05-14T02:15:22.953Z,96.57
2018-05-14T02:17:51.799Z,101.30
2018-05-14T02:20:20.683Z,91.00
2018-05-14T02:22:49.543Z,101.77
2018-05-14T02:25:18.407Z,98.87
2018-05-14T02:27:47.301Z,103.43
2018-05-14T02:30:16.143Z,80.33
2018-05-14T02:32:46.517Z,93.10
2018-05-14T02:35:15.401Z,90.47
2018-05-14T02:37:44.249Z,82.77
2018-05-14T02:40:14.083Z,82.40
2018-05-14T02:42:43.719Z,94.40
2018-05-14T02:45:12.689Z,76.37
2018-05-14T02:47:41.462Z,100.67
2018-05-14T02:50:11.113Z,103.80
2018-05-14T02:52:39.961Z,74.93
2018-05-14T02:55:08.850Z,94.97
2018-05-14T02:57:38.206Z,104.93
2018-05-14T03:00:06.974Z,93.70
2018-05-14T03:02:35.835Z,111.10
2018-05-14T03:05:04.680Z,100.80
2018-05-14T03:07:34.309Z,94.30
2018-05-14T03:10:03.189Z,102.03
2018-05-14T03:12:32.813Z,98.50
2018-05-14T03:15:01.647Z,98.07
2018-05-14T03:17:30.508Z,100.67
2018-05-14T03:19:59.352Z,98.70
2018-05-14T03:22:28.977Z,99.80
2018-05-14T03:24:57.835Z,104.50
2018-05-14T03:27:26.680Z,97.80
2018-05-14T03:29:55.533Z,98.57
2018-05-14T03:32:25.290Z,104.13
2018-05-14T03:34:54.213Z,106.87
2018-05-14T03:37:23.036Z,96.63
2018-05-14T03:39:51.908Z,103.50
2018-05-14T03:42:20.770Z,104.00
2018-05-14T03:44:49.617Z,94.33
2018-05-14T03:47:18.513Z,102.50
2018-05-14T03:49:47.385Z,89.80
2018-05-14T03:52:16.345Z,91.60
2018-05-14T03:54:45.993Z,92.07
2018-05-14T03:57:14.871Z,99.00
2018-05-14T03:59:55.562Z,86.17
2018-05-14T04:02:36.984Z,95.83
2018-05-14T04:05:18.963Z,80.00
2018-05-14T04:07:47.797Z,82.17
2018-05-14T04:10:17.501Z,99.40
2018-05-14T04:12:47.136Z,93.23
2018-05-14T04:15:16.728Z,90.50
2018-05-14T04:17:45.559Z,95.03
2018-05-14T04:20:14.424Z,92.73
2018-05-14T04:22:43.268Z,79.60
2018-05-14T04:25:14.623Z,80.77
2018-05-14T04:27:43.465Z,85.90
2018-05-14T04:30:12.385Z,83.47
2018-05-14T04:32:41.184Z,85.40
2018-05-14T04:35:10.030Z,79.67
2018-05-14T04:37:38.884Z,75.07
2018-05-14T04:40:08.505Z,93.43
2018-05-14T04:42:38.125Z,84.03
2018-05-14T04:45:07.017Z,79.60
2018-05-14T04:47:36.152Z,82.80
2018-05-14T04:50:05.747Z,87.27
2018-05-14T04:52:35.392Z,78.57
2018-05-14T04:55:04.240Z,72.80
2018-05-14T04:57:33.848Z,73.10
2018-05-14T05:00:03.463Z,77.70
2018-05-14T05:02:33.401Z,66.10
2018-05-14T05:05:02.258Z,69.67
2018-05-14T05:07:31.090Z,66.57
2018-05-14T05:10:00.464Z,66.17
2018-05-14T05:12:30.092Z,71.07
2018-05-14T05:14:58.972Z,69.53
2018-05-14T05:17:27.828Z,62.43
2018-05-14T05:19:56.682Z,64.00
2018-05-14T05:22:25.550Z,71.17
2018-05-14T05:24:54.391Z,68.67
2018-05-14T05:27:23.256Z,60.07
2018-05-14T05:29:52.098Z,63.90
2018-05-14T05:32:21.709Z,58.57
2018-05-14T05:34:51.422Z,63.83
2018-05-14T05:37:20.332Z,63.27
2018-05-14T05:39:49.210Z,66.87
2018-05-14T05:42:18.057Z,60.60
2018-05-14T05:44:46.904Z,61.60
2018-05-14T05:47:15.753Z,55.07
2018-05-14T05:49:44.658Z,55.47
2018-05-14T05:52:13.503Z,56.00
2018-05-14T05:54:43.440Z,59.07
2018-05-14T05:57:13.065Z,56.20
2018-05-14T05:59:41.961Z,59.57
2018-05-14T06:02:10.812Z,56.63
2018-05-14T06:04:40.105Z,56.00
2018-05-14T06:07:08.960Z,56.77
2018-05-14T06:09:37.809Z,53.40
2018-05-14T06:12:06.712Z,58.13
2018-05-14T06:14:35.586Z,52.60
2018-05-14T06:17:05.232Z,53.17
2018-05-14T06:19:34.075Z,58.33
2018-05-14T06:22:03.691Z,54.93
2018-05-14T06:24:33.300Z,55.77
2018-05-14T06:27:02.177Z,59.03
2018-05-14T06:29:31.130Z,57.90
2018-05-14T06:32:00.009Z,55.93
2018-05-14T06:34:28.840Z,57.97
2018-05-14T06:36:57.686Z,55.57
2018-05-14T06:39:26.536Z,56.50
2018-05-14T06:41:56.155Z,57.20
2018-05-14T06:44:25.840Z,57.60
2018-05-14T06:46:54.968Z,57.80
2018-05-14T06:49:23.828Z,53.20
2018-05-14T06:51:52.669Z,55.40
2018-05-14T06:54:21.533Z,55.23
2018-05-14T06:56:51.356Z,54.80
2018-05-14T06:59:20.235Z,54.13
2018-05-14T07:01:49.831Z,54.73
2018-05-14T07:04:19.454Z,54.93
2018-05-14T07:06:48.326Z,55.57
2018-05-14T07:09:17.931Z,53.07
2018-05-14T07:11:47.543Z,55.80
2018-05-14T07:14:17.161Z,55.70
2018-05-14T07:16:46.019Z,52.83
2018-05-14T07:19:14.916Z,51.47
2018-05-14T07:21:43.705Z,52.70
2018-05-14T07:24:13.346Z,54.23
2018-05-14T07:26:42.203Z,53.23
2018-05-14T07:29:11.829Z,52.43
2018-05-14T07:31:41.445Z,58.07
2018-05-14T07:34:11.162Z,57.30
2018-05-14T07:36:40.212Z,56.37
2018-05-14T07:39:09.025Z,56.67
2018-05-14T07:41:38.625Z,53.50
2018-05-14T07:44:07.789Z,52.03
2018-05-14T07:46:36.641Z,51.97
2018-05-14T07:49:05.504Z,53.47
2018-05-14T07:51:34.377Z,54.53
2018-05-14T07:54:03.205Z,54.30
2018-05-14T07:56:32.112Z,53.83
2018-05-14T07:59:00.929Z,52.10
2018-05-14T08:01:29.810Z,52.90
2018-05-14T08:03:58.642Z,50.87
2018-05-14T08:06:28.277Z,47.40
2018-05-14T08:08:57.101Z,50.53
2018-05-14T08:11:25.970Z,49.80
2018-05-14T08:13:54.813Z,49.03
2018-05-14T08:16:24.434Z,47.57
2018-05-14T08:18:53.326Z,50.13
2018-05-14T08:21:22.175Z,51.20
2018-05-14T08:23:52.213Z,48.47
2018-05-14T08:26:21.823Z,47.57
2018-05-14T08:28:51.433Z,49.97
2018-05-14T08:31:20.275Z,47.20
2018-05-14T08:33:49.154Z,46.20
2018-05-14T08:36:17.986Z,46.20
2018-05-14T08:38:47.610Z,43.97
2018-05-14T08:41:16.464Z,44.57
2018-05-14T08:43:45.773Z,44.17
2018-05-14T08:46:14.614Z,42.73
2018-05-14T08:48:43.484Z,38.43
2018-05-14T08:51:12.318Z,39.40
2018-05-14T08:53:41.173Z,39.60
2018-05-14T08:56:10.026Z,41.50
2018-05-14T08:58:39.642Z,40.63
2018-05-14T09:01:09.257Z,42.60
2018-05-14T09:03:38.642Z,35.67
2018-05-14T09:06:08.240Z,36.07
2018-05-14T09:08:37.887Z,37.53
2018-05-14T09:11:07.476Z,39.40
2018-05-14T09:13:37.100Z,36.33
2018-05-14T09:16:05.948Z,35.00
2018-05-14T09:18:34.794Z,34.13
2018-05-14T09:21:03.652Z,34.80
2018-05-14T09:23:32.524Z,33.77
2018-05-14T09:26:01.363Z,31.63
2018-05-14T09:28:30.217Z,32.17
2018-05-14T09:30:59.848Z,32.83
2018-05-14T09:33:28.702Z,33.77
2018-05-14T09:35:58.336Z,32.20
2018-05-14T09:38:27.202Z,31.13
2018-05-14T09:40:56.075Z,30.70
2018-05-14T09:43:24.917Z,31.47
2018-05-14T09:45:53.798Z,25.87
2018-05-14T09:48:23.393Z,26.77
2018-05-14T09:50:52.261Z,26.90
2018-05-14T09:53:21.858Z,28.47
2018-05-14T09:55:51.501Z,26.70
2018-05-14T09:58:20.409Z,24.13
2018-05-14T10:00:49.212Z,22.83
2018-05-14T10:03:18.088Z,21.77
2018-05-14T10:05:46.969Z,21.33
2018-05-14T10:08:15.808Z,23.40
2018-05-14T10:10:44.684Z,21.53
2018-05-14T10:13:13.555Z,22.70
2018-05-14T10:15:42.391Z,22.63
2018-05-14T10:18:12.002Z,21.37
2018-05-14T10:20:41.657Z,20.43
2018-05-14T10:23:10.493Z,20.47
2018-05-14T10:25:40.093Z,17.87
2018-05-14T10:28:09.857Z,18.97
2018-05-14T10:30:38.726Z,19.20
2018-05-14T10:33:07.584Z,19.27
2018-05-14T10:38:13.368Z,16.83
2018-05-14T10:40:44.087Z,19.37
2018-05-14T10:43:13.401Z,19.13
2018-05-14T10:45:42.333Z,21.00
2018-05-14T10:48:11.179Z,18.80
2018-05-14T10:50:40.789Z,18.30
2018-05-14T10:53:10.392Z,17.20
2018-05-14T10:55:40.010Z,17.13
2018-05-14T10:58:09.644Z,17.00
2018-05-14T11:00:39.041Z,16.50
2018-05-14T11:03:07.892Z,17.23
2018-05-14T11:05:37.545Z,16.57
2018-05-14T11:08:06.389Z,16.50
2018-05-14T11:10:36.070Z,15.47
2018-05-14T11:13:04.892Z,15.20
2018-05-14T11:15:34.562Z,17.23
2018-05-14T11:18:03.417Z,14.93
2018-05-14T11:20:32.241Z,13.53
2018-05-14T11:23:01.103Z,15.40
2018-05-14T11:25:29.940Z,12.83
2018-05-14T11:27:58.788Z,12.67
2018-05-14T11:30:27.649Z,11.70
2018-05-14T11:32:56.488Z,11.00
2018-05-14T11:35:25.374Z,10.60
2018-05-14T11:37:54.208Z,9.60
2018-05-14T11:40:23.033Z,9.83
2018-05-14T11:42:51.961Z,9.80
2018-05-14T11:45:20.801Z,9.90
2018-05-14T11:47:49.647Z,10.57
2018-05-14T11:50:18.488Z,11.50
2018-05-14T11:52:47.380Z,10.77
2018-05-14T11:55:16.210Z,11.03
2018-05-14T11:57:45.824Z,10.90
2018-05-14T12:00:15.449Z,12.73
2018-05-14T12:02:44.342Z,10.40
2018-05-14T12:05:13.940Z,7.90
2018-05-14T12:07:43.552Z,7.63
2018-05-14T12:10:12.455Z,6.90
2018-05-14T12:12:42.023Z,7.13
2018-05-14T12:15:11.617Z,6.83
2018-05-14T12:17:41.083Z,7.00
2018-05-14T12:20:09.910Z,7.57
2018-05-14T12:22:38.781Z,6.60
2018-05-14T12:25:07.607Z,7.30
2018-05-14T12:27:37.204Z,6.70
2018-05-14T12:30:06.074Z,6.30
2018-05-14T12:32:34.931Z,8.17
2018-05-14T12:35:04.749Z,6.23
2018-05-14T12:37:33.663Z,7.03
2018-05-14T12:40:02.467Z,6.47
2018-05-14T12:42:31.310Z,11.03
2018-05-14T12:45:00.161Z,6.27
2018-05-14T12:47:30.586Z,6.80
2018-05-14T12:50:00.685Z,5.70
2018-05-14T12:52:30.208Z,6.50
2018-05-14T12:54:59.816Z,5.80
2018-05-14T12:57:29.432Z,6.57
2018-05-14T12:59:59.045Z,5.80
2018-05-14T13:02:28.689Z,6.13
2018-05-14T13:04:57.525Z,7.47
2018-05-14T13:07:26.345Z,6.30
2018-05-14T13:09:55.170Z,5.93
2018-05-14T13:12:24.004Z,5.40
2018-05-14T13:14:53.627Z,6.70
2018-05-14T13:17:22.476Z,7.73
2018-05-14T13:19:51.316Z,5.27
2018-05-14T13:22:20.156Z,7.60
2018-05-14T13:24:49.015Z,6.37
2018-05-14T13:27:17.837Z,6.30
2018-05-14T13:29:46.676Z,6.00
2018-05-14T13:32:15.536Z,5.53
2018-05-14T13:34:45.134Z,5.43
2018-05-14T13:37:14.741Z,6.33
2018-05-14T13:39:44.350Z,6.43
2018-05-14T13:42:13.954Z,6.50
2018-05-14T13:44:43.566Z,5.27
2018-05-14T13:47:13.189Z,6.13
2018-05-14T13:49:42.049Z,8.50
2018-05-14T13:52:10.905Z,6.33
2018-05-14T13:54:39.755Z,7.17
2018-05-14T13:57:08.594Z,6.70
2018-05-14T13:59:38.209Z,5.77
2018-05-14T14:02:07.817Z,6.50
2018-05-14T14:04:36.662Z,5.90
2018-05-14T14:07:05.607Z,7.27
2018-05-14T14:09:35.220Z,6.43
2018-05-14T14:12:04.056Z,5.73
2018-05-14T14:14:34.423Z,5.33
2018-05-14T14:17:03.283Z,6.10
2018-05-14T14:19:32.171Z,5.60
2018-05-14T14:22:01.012Z,6.07
2018-05-14T14:24:29.982Z,5.20
2018-05-14T14:26:58.816Z,5.50
2018-05-14T14:29:27.674Z,8.83
2018-05-14T14:31:56.511Z,5.83
2018-05-14T14:34:25.756Z,6.33
2018-05-14T14:36:54.612Z,8.17
2018-05-14T14:39:23.465Z,5.23
2018-05-14T14:41:52.343Z,5.80
2018-05-14T14:44:21.948Z,6.00
2018-05-14T14:46:50.784Z,5.90
2018-05-14T14:49:19.645Z,6.40
2018-05-14T14:51:48.503Z,12.17
2018-05-14T14:54:17.362Z,7.67
2018-05-14T14:56:46.204Z,5.87
2018-05-14T14:59:15.832Z,6.03
2018-05-14T15:01:45.426Z,5.70
2018-05-14T15:04:15.047Z,8.73
2018-05-14T15:06:44.969Z,8.30
2018-05-14T15:09:13.829Z,5.50
2018-05-14T15:11:42.912Z,8.10
2018-05-14T15:14:12.565Z,5.77
2018-05-14T15:16:41.414Z,6.13
2018-05-14T15:19:10.233Z,5.80
2018-05-14T15:21:39.072Z,7.10
2018-05-14T15:24:07.924Z,6.93
2018-05-14T15:26:36.793Z,6.50
2018-05-14T15:29:06.379Z,5.70
2018-05-14T15:31:35.989Z,9.87
2018-05-14T15:34:06.570Z,6.93
2018-05-14T15:36:35.417Z,5.63
2018-05-14T15:39:04.380Z,5.63
2018-05-14T15:41:34.733Z,8.60
2018-05-14T15:44:04.350Z,5.40
2018-05-14T15:46:33.195Z,5.50
2018-05-14T15:49:02.682Z,8.07
2018-05-14T15:51:31.552Z,6.00
2018-05-14T15:54:00.405Z,6.63
2018-05-14T15:56:30.139Z,6.40
2018-05-14T15:58:58.883Z,6.70
2018-05-14T16:01:27.757Z,6.33
2018-05-14T16:03:56.585Z,6.40
2018-05-14T16:06:26.197Z,6.80
2018-05-14T16:08:56.421Z,6.00
2018-05-14T16:11:26.012Z,6.40
2018-05-14T16:13:55.655Z,5.93
2018-05-14T16:16:24.504Z,5.90
2018-05-14T16:18:53.367Z,6.17
2018-05-14T16:21:22.204Z,8.23
2018-05-14T16:23:52.049Z,6.17
2018-05-14T16:26:21.305Z,5.57
2018-05-14T16:28:50.925Z,5.47
2018-05-14T16:31:20.549Z,6.13
2018-05-14T16:33:49.423Z,6.10
2018-05-14T16:36:19.032Z,5.80
2018-05-14T16:38:48.660Z,8.90
2018-05-14T16:41:17.505Z,5.60
2018-05-14T16:43:46.373Z,9.30
2018-05-14T16:46:15.197Z,10.37
2018-05-14T16:48:44.815Z,5.57
2018-05-14T16:51:13.642Z,7.60
2018-05-14T16:53:42.513Z,6.50
2018-05-14T16:56:12.134Z,7.53
2018-05-14T16:58:40.997Z,6.07
2018-05-14T17:01:09.832Z,6.23
2018-05-14T17:03:38.661Z,7.60
2018-05-14T17:06:07.556Z,6.73
2018-05-14T17:08:36.391Z,6.73
2018-05-14T17:11:05.373Z,7.27
2018-05-14T17:13:34.457Z,6.83
2018-05-14T17:16:03.297Z,8.77
2018-05-14T17:18:32.927Z,10.33
2018-05-14T17:21:01.796Z,6.60
2018-05-14T17:23:31.377Z,6.73
2018-05-14T17:26:00.222Z,7.67
2018-05-14T17:28:29.192Z,7.30
2018-05-14T17:30:58.802Z,6.67
2018-05-14T17:33:28.421Z,6.40
2018-05-14T17:35:57.275Z,5.70
2018-05-14T17:38:26.895Z,8.40
2018-05-14T17:40:56.501Z,5.80
2018-05-14T17:43:26.124Z,10.33
2018-05-14T17:45:55.065Z,7.03
2018-05-14T17:48:24.621Z,13.70
2018-05-14T17:50:53.725Z,7.77
2018-05-14T17:53:22.573Z,7.23
2018-05-14T17:55:52.185Z,7.17
2018-05-14T17:58:21.060Z,6.07
2018-05-14T18:00:50.235Z,8.13
2018-05-14T18:03:19.865Z,7.40
2018-05-14T18:05:49.489Z,6.57
2018-05-14T18:08:18.398Z,10.20
2018-05-14T18:10:47.241Z,11.13
2018-05-14T18:13:16.854Z,6.00
2018-05-14T18:15:45.712Z,7.07
2018-05-14T18:18:14.561Z,9.27
2018-05-14T18:20:43.406Z,6.53
2018-05-14T18:23:18.649Z,7.40
2018-05-14T18:25:54.030Z,8.07
2018-05-14T18:28:28.624Z,6.63
2018-05-14T18:31:02.445Z,6.70
2018-05-14T18:33:31.306Z,7.33
2018-05-14T18:36:01.643Z,7.00
2018-05-14T18:38:31.284Z,7.27
2018-05-14T18:41:00.125Z,10.53
2018-05-14T18:43:29.765Z,7.30
2018-05-14T18:45:58.608Z,8.97
2018-05-14T18:48:27.496Z,8.17
2018-05-14T18:50:57.140Z,6.87
2018-05-14T18:53:26.415Z,10.13
2018-05-14T18:55:56.252Z,7.23
2018-05-14T18:58:25.098Z,8.23
2018-05-14T19:00:53.955Z,7.40
2018-05-14T19:03:22.788Z,7.17
2018-05-14T19:05:52.407Z,9.97
2018-05-14T19:08:22.020Z,12.20
2018-05-14T19:10:57.332Z,9.37
2018-05-14T19:13:26.169Z,11.23
2018-05-14T19:16:00.853Z,7.07
2018-05-14T19:18:29.674Z,7.40
2018-05-14T19:20:58.821Z,7.43
2018-05-14T19:23:33.461Z,6.93
2018-05-14T19:26:02.329Z,6.70
2018-05-14T19:28:36.843Z,7.47
2018-05-14T19:31:05.704Z,6.87
2018-05-14T19:33:40.410Z,7.93
2018-05-14T19:36:10.165Z,7.40
2018-05-14T19:38:38.901Z,8.30
2018-05-14T19:41:08.523Z,8.67
2018-05-14T19:43:37.401Z,6.57
2018-05-14T19:46:07.031Z,6.10
2018-05-14T19:48:35.925Z,8.10
2018-05-14T19:51:04.711Z,6.93
2018-05-14T19:53:33.526Z,8.27
2018-05-14T19:56:02.359Z,7.30
2018-05-14T19:58:31.990Z,6.27
2018-05-14T20:01:02.123Z,8.07
2018-05-14T20:03:31.106Z,9.00
2018-05-14T20:05:59.941Z,8.17
2018-05-14T20:08:29.026Z,5.90
2018-05-14T20:10:57.869Z,7.70
2018-05-14T20:13:26.747Z,6.90
2018-05-14T20:15:55.569Z,5.90
2018-05-14T20:18:24.422Z,7.43
2018-05-14T20:20:54.048Z,13.50
2018-05-14T20:23:23.657Z,5.97
2018-05-14T20:25:53.278Z,6.90
2018-05-14T20:28:22.676Z,8.77
2018-05-14T20:30:52.288Z,7.23
2018-05-14T20:33:21.146Z,11.23
2018-05-14T20:35:50.756Z,6.60
2018-05-14T20:38:19.658Z,6.60
2018-05-14T20:40:49.292Z,6.73
2018-05-14T20:43:18.134Z,9.50
2018-05-14T20:45:47.033Z,8.97
2018-05-14T20:48:15.867Z,8.83
2018-05-14T20:50:45.139Z,7.33
2018-05-14T20:53:14.797Z,7.53
2018-05-14T20:55:43.613Z,10.53
2018-05-14T20:58:13.225Z,14.70
2018-05-14T21:00:42.048Z,9.70
2018-05-14T21:03:10.902Z,9.97
2018-05-14T21:05:39.760Z,7.47
2018-05-14T21:08:09.417Z,7.50
2018-05-14T21:10:38.272Z,7.67
2018-05-14T21:13:07.114Z,8.03
2018-05-14T21:15:36.689Z,9.30
2018-05-14T21:18:05.561Z,11.57
2018-05-14T21:20:34.418Z,7.60
2018-05-14T21:23:04.831Z,7.93
2018-05-14T21:25:33.676Z,7.40
2018-05-14T21:28:02.533Z,11.90
2018-05-14T21:30:32.175Z,8.60
2018-05-14T21:33:01.728Z,8.47
2018-05-14T21:35:30.576Z,8.33
2018-05-14T21:37:59.640Z,8.47
2018-05-14T21:40:29.237Z,14.20
2018-05-14T21:42:58.860Z,7.03
2018-05-14T21:45:27.673Z,7.57
2018-05-14T21:47:56.559Z,13.77
2018-05-14T21:50:25.399Z,8.57
2018-05-14T21:52:55.000Z,8.73
2018-05-14T21:55:23.837Z,7.90
2018-05-14T21:57:52.699Z,9.27
2018-05-14T22:00:22.310Z,8.53
2018-05-14T22:02:51.920Z,7.07
2018-05-14T22:05:20.764Z,8.53
2018-05-14T22:07:49.596Z,8.33
2018-05-14T22:10:18.449Z,8.43
2018-05-14T22:12:48.805Z,11.63
2018-05-14T22:15:17.659Z,9.00
2018-05-14T22:17:47.535Z,7.17
2018-05-14T22:20:16.688Z,7.83
2018-05-14T22:22:45.669Z,11.43
2018-05-14T22:25:16.189Z,8.03
2018-05-14T22:27:45.040Z,11.40
2018-05-14T22:30:13.876Z,7.10
2018-05-14T22:32:42.707Z,7.17
2018-05-14T22:35:11.550Z,7.83
2018-05-14T22:37:41.412Z,7.90
2018-05-14T22:40:10.781Z,7.73
2018-05-14T22:42:40.432Z,13.73
2018-05-14T22:45:09.280Z,7.67
2018-05-14T22:47:38.876Z,9.80
2018-05-14T22:50:08.500Z,8.13
2018-05-14T22:52:38.095Z,11.20
2018-05-14T22:55:07.712Z,7.80
2018-05-14T22:57:37.324Z,9.43
2018-05-14T23:00:06.933Z,13.60
2018-05-14T23:02:36.285Z,9.47
2018-05-14T23:05:05.905Z,8.20
2018-05-14T23:07:35.520Z,7.93
2018-05-14T23:10:05.129Z,8.80
2018-05-14T23:12:33.995Z,8.00
2018-05-14T23:15:02.849Z,15.50
2018-05-14T23:17:31.717Z,10.03
2018-05-14T23:20:00.536Z,8.23
2018-05-14T23:22:42.201Z,8.03
2018-05-14T23:25:11.047Z,8.23
2018-05-14T23:27:40.652Z,8.03
2018-05-14T23:30:10.280Z,8.53
2018-05-14T23:32:39.891Z,7.80
2018-05-14T23:35:12.502Z,8.47
2018-05-14T23:37:41.368Z,9.23
2018-05-14T23:40:10.213Z,7.40
2018-05-14T23:42:39.032Z,8.83
2018-05-14T23:45:07.863Z,9.73
2018-05-14T23:47:36.709Z,11.53
2018-05-14T23:50:06.313Z,9.63
2018-05-14T23:52:35.190Z,9.93
2018-05-14T23:55:04.824Z,9.17
2018-05-14T23:57:33.653Z,9.00
